sensor_id;sensor_type;location;lat;lon;timestamp;pressure;altitude;pressure_sealevel;temperature;humidity
35989;BME280;22064;42.672;23.282;2022-12-07T00:01:10;94630.09;;;4.44;100.00
35989;BME280;22064;42.672;23.282;2022-12-07T00:03:37;94622.38;;;4.44;100.00
35989;BME280;22064;42.672;23.282;2022-12-07T00:06:04;94618.50;;;4.66;100.00
35989;BME280;22064;42.672;23.282;2022-12-07T00:08:31;94618.03;;;4.82;100.00
35989;BME280;22064;42.672;23.282;2022-12-07T00:11:10;94620.94;;;4.99;100.00
35989;BME280;22064;42.672;23.282;2022-12-07T00:13:37;94617.91;;;5.09;100.00
35989;BME280;22064;42.672;23.282;2022-12-07T00:16:08;94624.94;;;5.27;100.00
35989;BME280;22064;42.672;23.282;2022-12-07T00:18:35;94617.69;;;5.36;100.00
35989;BME280;22064;42.672;23.282;2022-12-07T00:21:05;94600.88;;;5.26;100.00
35989;BME280;22064;42.672;23.282;2022-12-07T00:23:32;94623.28;;;5.32;100.00
35989;BME280;22064;42.672;23.282;2022-12-07T00:28:31;94606.41;;;5.05;100.00
35989;BME280;22064;42.672;23.282;2022-12-07T00:31:01;94614.25;;;5.23;100.00
35989;BME280;22064;42.672;23.282;2022-12-07T00:33:26;94624.88;;;5.33;100.00
35989;BME280;22064;42.672;23.282;2022-12-07T00:35:57;94619.44;;;5.42;100.00
35989;BME280;22064;42.672;23.282;2022-12-07T00:38:23;94618.72;;;5.35;100.00
35989;BME280;22064;42.672;23.282;2022-12-07T00:41:03;94625.63;;;5.41;100.00
35989;BME280;22064;42.672;23.282;2022-12-07T00:43:30;94636.88;;;5.21;100.00
35989;BME280;22064;42.672;23.282;2022-12-07T00:45:56;94618.25;;;4.81;100.00
35989;BME280;22064;42.672;23.282;2022-12-07T00:48:22;94592.53;;;4.61;100.00
35989;BME280;22064;42.672;23.282;2022-12-07T00:50:48;94617.72;;;4.66;100.00
35989;BME280;22064;42.672;23.282;2022-12-07T00:53:14;94614.81;;;4.49;100.00
35989;BME280;22064;42.672;23.282;2022-12-07T00:55:40;94622.97;;;4.39;100.00
35989;BME280;22064;42.672;23.282;2022-12-07T00:58:06;94619.22;;;4.35;100.00
35989;BME280;22064;42.672;23.282;2022-12-07T01:00:32;94611.31;;;4.23;100.00
35989;BME280;22064;42.672;23.282;2022-12-07T01:02:58;94623.22;;;4.24;100.00
35989;BME280;22064;42.672;23.282;2022-12-07T01:05:24;94615.09;;;4.14;100.00
35989;BME280;22064;42.672;23.282;2022-12-07T01:07:49;94615.13;;;4.07;100.00
35989;BME280;22064;42.672;23.282;2022-12-07T01:10:15;94606.97;;;4.24;100.00
35989;BME280;22064;42.672;23.282;2022-12-07T01:12:41;94617.66;;;4.27;100.00
35989;BME280;22064;42.672;23.282;2022-12-07T01:15:07;94604.63;;;4.09;100.00
35989;BME280;22064;42.672;23.282;2022-12-07T01:17:33;94600.03;;;4.11;100.00
35989;BME280;22064;42.672;23.282;2022-12-07T01:19:59;94602.22;;;4.21;100.00
35989;BME280;22064;42.672;23.282;2022-12-07T01:22:25;94601.44;;;4.07;100.00
35989;BME280;22064;42.672;23.282;2022-12-07T01:24:50;94592.34;;;4.04;100.00
35989;BME280;22064;42.672;23.282;2022-12-07T01:27:16;94591.91;;;4.21;100.00
35989;BME280;22064;42.672;23.282;2022-12-07T01:29:41;94592.28;;;4.31;100.00
35989;BME280;22064;42.672;23.282;2022-12-07T01:32:07;94588.13;;;4.16;100.00
35989;BME280;22064;42.672;23.282;2022-12-07T01:34:32;94560.84;;;3.96;100.00
35989;BME280;22064;42.672;23.282;2022-12-07T01:36:58;94590.94;;;4.08;100.00
35989;BME280;22064;42.672;23.282;2022-12-07T01:39:24;94594.91;;;4.04;100.00
35989;BME280;22064;42.672;23.282;2022-12-07T01:41:50;94592.75;;;3.94;100.00
35989;BME280;22064;42.672;23.282;2022-12-07T01:47:26;94588.78;;;3.99;100.00
35989;BME280;22064;42.672;23.282;2022-12-07T01:49:52;94591.19;;;3.93;100.00
35989;BME280;22064;42.672;23.282;2022-12-07T01:52:30;94591.19;;;3.93;100.00
35989;BME280;22064;42.672;23.282;2022-12-07T01:55:00;94590.19;;;3.94;100.00
35989;BME280;22064;42.672;23.282;2022-12-07T01:57:26;94581.66;;;4.01;100.00
35989;BME280;22064;42.672;23.282;2022-12-07T01:59:53;94579.63;;;4.16;100.00
35989;BME280;22064;42.672;23.282;2022-12-07T02:02:24;94562.94;;;4.25;100.00
35989;BME280;22064;42.672;23.282;2022-12-07T02:04:53;94575.41;;;4.28;100.00
35989;BME280;22064;42.672;23.282;2022-12-07T02:07:20;94566.13;;;4.27;100.00
35989;BME280;22064;42.672;23.282;2022-12-07T02:09:46;94575.63;;;4.20;100.00
35989;BME280;22064;42.672;23.282;2022-12-07T02:12:12;94574.69;;;4.08;100.00
35989;BME280;22064;42.672;23.282;2022-12-07T02:14:38;94580.63;;;4.02;100.00
35989;BME280;22064;42.672;23.282;2022-12-07T02:17:22;94567.97;;;4.00;100.00
35989;BME280;22064;42.672;23.282;2022-12-07T02:22:46;94581.84;;;4.06;100.00
35989;BME280;22064;42.672;23.282;2022-12-07T02:25:53;94567.56;;;4.03;100.00
35989;BME280;22064;42.672;23.282;2022-12-07T02:31:15;94569.69;;;4.20;100.00
35989;BME280;22064;42.672;23.282;2022-12-07T02:33:47;94569.63;;;4.33;100.00
35989;BME280;22064;42.672;23.282;2022-12-07T02:36:20;94564.06;;;4.36;100.00
35989;BME280;22064;42.672;23.282;2022-12-07T02:39:03;94568.13;;;4.19;100.00
35989;BME280;22064;42.672;23.282;2022-12-07T02:41:43;94571.69;;;4.11;100.00
35989;BME280;22064;42.672;23.282;2022-12-07T02:44:14;94568.72;;;4.14;100.00
35989;BME280;22064;42.672;23.282;2022-12-07T02:46:44;94573.09;;;4.07;100.00
35989;BME280;22064;42.672;23.282;2022-12-07T02:49:12;94568.19;;;3.92;100.00
35989;BME280;22064;42.672;23.282;2022-12-07T02:51:42;94561.03;;;4.01;100.00
35989;BME280;22064;42.672;23.282;2022-12-07T02:54:17;94556.41;;;4.23;100.00
35989;BME280;22064;42.672;23.282;2022-12-07T03:18:30;94535.63;;;4.56;100.00
35989;BME280;22064;42.672;23.282;2022-12-07T03:20:59;94543.94;;;4.65;100.00
35989;BME280;22064;42.672;23.282;2022-12-07T03:23:27;94537.75;;;4.27;100.00
35989;BME280;22064;42.672;23.282;2022-12-07T03:25:57;94543.34;;;4.11;100.00
35989;BME280;22064;42.672;23.282;2022-12-07T03:28:24;94546.34;;;4.08;100.00
35989;BME280;22064;42.672;23.282;2022-12-07T03:31:02;94542.22;;;3.93;100.00
35989;BME280;22064;42.672;23.282;2022-12-07T03:33:39;94542.94;;;4.14;100.00
35989;BME280;22064;42.672;23.282;2022-12-07T03:36:19;94551.31;;;4.09;100.00
35989;BME280;22064;42.672;23.282;2022-12-07T03:38:52;94547.56;;;4.05;100.00
35989;BME280;22064;42.672;23.282;2022-12-07T03:41:24;94546.19;;;3.96;100.00
35989;BME280;22064;42.672;23.282;2022-12-07T03:43:51;94546.59;;;3.93;100.00
35989;BME280;22064;42.672;23.282;2022-12-07T03:49:25;94544.22;;;3.91;100.00
35989;BME280;22064;42.672;23.282;2022-12-07T03:57:12;94546.63;;;3.86;100.00
35989;BME280;22064;42.672;23.282;2022-12-07T03:59:39;94546.63;;;3.86;100.00
35989;BME280;22064;42.672;23.282;2022-12-07T04:02:07;94532.78;;;3.74;100.00
35989;BME280;22064;42.672;23.282;2022-12-07T04:04:33;94530.00;;;3.76;100.00
35989;BME280;22064;42.672;23.282;2022-12-07T04:06:59;94534.53;;;3.74;100.00
35989;BME280;22064;42.672;23.282;2022-12-07T04:09:25;94531.00;;;3.75;100.00
35989;BME280;22064;42.672;23.282;2022-12-07T04:11:51;94533.19;;;3.71;100.00
35989;BME280;22064;42.672;23.282;2022-12-07T04:14:17;94526.25;;;3.65;100.00
35989;BME280;22064;42.672;23.282;2022-12-07T04:16:54;94526.25;;;3.65;100.00
35989;BME280;22064;42.672;23.282;2022-12-07T04:19:25;94529.78;;;3.70;100.00
35989;BME280;22064;42.672;23.282;2022-12-07T04:21:51;94532.41;;;3.57;100.00
35989;BME280;22064;42.672;23.282;2022-12-07T04:24:17;94534.19;;;3.50;100.00
35989;BME280;22064;42.672;23.282;2022-12-07T04:26:43;94536.75;;;3.57;100.00
35989;BME280;22064;42.672;23.282;2022-12-07T04:29:09;94543.88;;;3.61;100.00
35989;BME280;22064;42.672;23.282;2022-12-07T04:31:36;94544.66;;;3.68;100.00
35989;BME280;22064;42.672;23.282;2022-12-07T04:34:02;94536.16;;;3.68;100.00
35989;BME280;22064;42.672;23.282;2022-12-07T04:36:28;94535.19;;;3.56;100.00
35989;BME280;22064;42.672;23.282;2022-12-07T04:38:54;94529.44;;;3.54;100.00
35989;BME280;22064;42.672;23.282;2022-12-07T04:41:21;94536.97;;;3.48;100.00
35989;BME280;22064;42.672;23.282;2022-12-07T04:43:59;94544.88;;;3.54;100.00
35989;BME280;22064;42.672;23.282;2022-12-07T04:46:25;94545.50;;;3.56;100.00
35989;BME280;22064;42.672;23.282;2022-12-07T04:48:51;94545.28;;;3.57;100.00
35989;BME280;22064;42.672;23.282;2022-12-07T04:51:20;94543.09;;;3.61;100.00
35989;BME280;22064;42.672;23.282;2022-12-07T04:53:46;94545.88;;;3.53;100.00
35989;BME280;22064;42.672;23.282;2022-12-07T04:56:12;94546.06;;;3.58;100.00
35989;BME280;22064;42.672;23.282;2022-12-07T04:58:38;94537.97;;;3.47;100.00
35989;BME280;22064;42.672;23.282;2022-12-07T05:01:03;94538.72;;;3.55;100.00
35989;BME280;22064;42.672;23.282;2022-12-07T05:03:29;94534.38;;;3.48;100.00
35989;BME280;22064;42.672;23.282;2022-12-07T05:05:55;94546.28;;;3.50;100.00
35989;BME280;22064;42.672;23.282;2022-12-07T05:08:20;94541.13;;;3.50;100.00
35989;BME280;22064;42.672;23.282;2022-12-07T05:10:45;94550.84;;;3.47;100.00
35989;BME280;22064;42.672;23.282;2022-12-07T05:13:13;94548.06;;;3.42;100.00
35989;BME280;22064;42.672;23.282;2022-12-07T05:15:38;94541.53;;;3.40;100.00
35989;BME280;22064;42.672;23.282;2022-12-07T05:18:04;94545.28;;;3.51;100.00
35989;BME280;22064;42.672;23.282;2022-12-07T05:20:30;94542.50;;;3.65;100.00
35989;BME280;22064;42.672;23.282;2022-12-07T05:22:55;94535.16;;;3.69;100.00
35989;BME280;22064;42.672;23.282;2022-12-07T05:25:21;94531.41;;;3.65;100.00
35989;BME280;22064;42.672;23.282;2022-12-07T05:27:46;94536.16;;;3.61;100.00
35989;BME280;22064;42.672;23.282;2022-12-07T05:30:12;94537.75;;;3.56;100.00
35989;BME280;22064;42.672;23.282;2022-12-07T05:32:38;94536.72;;;3.70;100.00
35989;BME280;22064;42.672;23.282;2022-12-07T05:35:04;94542.81;;;3.89;100.00
35989;BME280;22064;42.672;23.282;2022-12-07T05:37:29;94541.78;;;4.10;100.00
35989;BME280;22064;42.672;23.282;2022-12-07T05:39:55;94539.75;;;4.25;100.00
35989;BME280;22064;42.672;23.282;2022-12-07T05:42:20;94532.59;;;4.27;100.00
35989;BME280;22064;42.672;23.282;2022-12-07T05:44:46;94525.00;;;4.39;100.00
35989;BME280;22064;42.672;23.282;2022-12-07T05:47:13;94524.44;;;4.37;100.00
35989;BME280;22064;42.672;23.282;2022-12-07T05:49:39;94523.91;;;4.22;100.00
35989;BME280;22064;42.672;23.282;2022-12-07T05:52:05;94523.56;;;4.11;100.00
35989;BME280;22064;42.672;23.282;2022-12-07T05:54:31;94522.34;;;4.07;100.00
35989;BME280;22064;42.672;23.282;2022-12-07T05:56:57;94528.59;;;3.86;100.00
35989;BME280;22064;42.672;23.282;2022-12-07T05:59:22;94530.34;;;3.92;100.00
35989;BME280;22064;42.672;23.282;2022-12-07T06:04:17;94522.75;;;4.18;100.00
35989;BME280;22064;42.672;23.282;2022-12-07T06:06:43;94521.75;;;4.12;100.00
35989;BME280;22064;42.672;23.282;2022-12-07T06:09:09;94524.69;;;4.22;100.00
35989;BME280;22064;42.672;23.282;2022-12-07T06:11:35;94530.59;;;4.29;100.00
35989;BME280;22064;42.672;23.282;2022-12-07T06:14:19;94520.69;;;4.26;100.00
35989;BME280;22064;42.672;23.282;2022-12-07T06:16:44;94539.34;;;4.28;100.00
35989;BME280;22064;42.672;23.282;2022-12-07T06:19:10;94541.31;;;4.26;100.00
35989;BME280;22064;42.672;23.282;2022-12-07T06:21:36;94538.16;;;4.24;100.00
35989;BME280;22064;42.672;23.282;2022-12-07T06:24:01;94531.09;;;4.06;100.00
35989;BME280;22064;42.672;23.282;2022-12-07T06:26:27;94541.03;;;4.03;100.00
35989;BME280;22064;42.672;23.282;2022-12-07T06:28:52;94555.69;;;4.02;100.00
35989;BME280;22064;42.672;23.282;2022-12-07T06:31:18;94537.66;;;3.96;100.00
35989;BME280;22064;42.672;23.282;2022-12-07T06:33:44;94535.22;;;4.14;100.00
35989;BME280;22064;42.672;23.282;2022-12-07T06:36:10;94538.13;;;4.31;100.00
35989;BME280;22064;42.672;23.282;2022-12-07T06:38:36;94546.97;;;4.55;100.00
35989;BME280;22064;42.672;23.282;2022-12-07T06:41:01;94551.03;;;4.69;100.00
35989;BME280;22064;42.672;23.282;2022-12-07T06:43:27;94555.59;;;4.67;100.00
35989;BME280;22064;42.672;23.282;2022-12-07T06:45:53;94553.09;;;4.54;100.00
35989;BME280;22064;42.672;23.282;2022-12-07T06:48:19;94550.69;;;4.21;100.00
35989;BME280;22064;42.672;23.282;2022-12-07T06:50:45;94556.84;;;4.13;100.00
35989;BME280;22064;42.672;23.282;2022-12-07T06:53:11;94547.16;;;4.08;100.00
35989;BME280;22064;42.672;23.282;2022-12-07T06:55:36;94553.28;;;4.07;100.00
35989;BME280;22064;42.672;23.282;2022-12-07T06:58:02;94560.44;;;3.99;100.00
35989;BME280;22064;42.672;23.282;2022-12-07T07:00:28;94561.22;;;4.06;100.00
35989;BME280;22064;42.672;23.282;2022-12-07T07:02:54;94558.66;;;4.06;100.00
35989;BME280;22064;42.672;23.282;2022-12-07T07:05:19;94562.00;;;4.13;100.00
35989;BME280;22064;42.672;23.282;2022-12-07T07:07:50;94567.34;;;4.05;100.00
35989;BME280;22064;42.672;23.282;2022-12-07T07:10:16;94554.06;;;4.08;100.00
35989;BME280;22064;42.672;23.282;2022-12-07T07:12:41;94559.22;;;4.14;100.00
35989;BME280;22064;42.672;23.282;2022-12-07T07:15:07;94553.72;;;3.98;100.00
35989;BME280;22064;42.672;23.282;2022-12-07T07:17:33;94554.91;;;3.95;100.00
35989;BME280;22064;42.672;23.282;2022-12-07T07:19:58;94557.44;;;4.02;100.00
35989;BME280;22064;42.672;23.282;2022-12-07T07:22:24;94545.34;;;4.15;100.00
35989;BME280;22064;42.672;23.282;2022-12-07T07:24:49;94550.69;;;4.07;100.00
35989;BME280;22064;42.672;23.282;2022-12-07T07:27:15;94563.81;;;3.99;100.00
35989;BME280;22064;42.672;23.282;2022-12-07T07:29:40;94564.63;;;3.93;100.00
35989;BME280;22064;42.672;23.282;2022-12-07T07:32:06;94569.94;;;3.98;100.00
35989;BME280;22064;42.672;23.282;2022-12-07T07:34:33;94544.41;;;3.97;100.00
35989;BME280;22064;42.672;23.282;2022-12-07T07:36:59;94548.50;;;4.18;100.00
35989;BME280;22064;42.672;23.282;2022-12-07T07:39:24;94568.03;;;4.38;100.00
35989;BME280;22064;42.672;23.282;2022-12-07T07:41:50;94562.84;;;4.52;100.00
35989;BME280;22064;42.672;23.282;2022-12-07T07:44:23;94557.84;;;4.57;100.00
35989;BME280;22064;42.672;23.282;2022-12-07T07:46:49;94564.66;;;4.83;100.00
35989;BME280;22064;42.672;23.282;2022-12-07T07:49:14;94565.81;;;4.87;100.00
35989;BME280;22064;42.672;23.282;2022-12-07T07:51:40;94560.34;;;4.70;100.00
35989;BME280;22064;42.672;23.282;2022-12-07T07:54:05;94562.34;;;4.68;100.00
35989;BME280;22064;42.672;23.282;2022-12-07T07:56:31;94560.34;;;4.70;100.00
35989;BME280;22064;42.672;23.282;2022-12-07T07:58:56;94551.16;;;4.81;100.00
35989;BME280;22064;42.672;23.282;2022-12-07T08:01:22;94552.19;;;4.73;100.00
35989;BME280;22064;42.672;23.282;2022-12-07T08:03:48;94560.41;;;4.95;100.00
35989;BME280;22064;42.672;23.282;2022-12-07T08:06:13;94573.34;;;5.20;100.00
35989;BME280;22064;42.672;23.282;2022-12-07T08:08:39;94560.97;;;5.29;100.00
35989;BME280;22064;42.672;23.282;2022-12-07T08:11:05;94559.44;;;5.46;100.00
35989;BME280;22064;42.672;23.282;2022-12-07T08:13:31;94565.13;;;5.55;100.00
35989;BME280;22064;42.672;23.282;2022-12-07T08:15:56;94557.84;;;5.70;100.00
35989;BME280;22064;42.672;23.282;2022-12-07T08:18:22;94563.25;;;5.87;100.00
35989;BME280;22064;42.672;23.282;2022-12-07T08:20:48;94564.34;;;5.98;100.00
35989;BME280;22064;42.672;23.282;2022-12-07T08:23:13;94565.22;;;6.10;100.00
35989;BME280;22064;42.672;23.282;2022-12-07T08:25:39;94556.03;;;6.14;100.00
35989;BME280;22064;42.672;23.282;2022-12-07T08:28:05;94569.81;;;6.27;100.00
35989;BME280;22064;42.672;23.282;2022-12-07T08:30:31;94565.28;;;6.22;100.00
35989;BME280;22064;42.672;23.282;2022-12-07T08:32:56;94566.50;;;6.01;100.00
35989;BME280;22064;42.672;23.282;2022-12-07T08:35:23;94570.69;;;6.20;100.00
35989;BME280;22064;42.672;23.282;2022-12-07T08:37:48;94575.72;;;6.34;100.00
35989;BME280;22064;42.672;23.282;2022-12-07T08:40:14;94559.91;;;6.42;100.00
35989;BME280;22064;42.672;23.282;2022-12-07T08:42:47;94563.34;;;6.54;100.00
35989;BME280;22064;42.672;23.282;2022-12-07T08:45:14;94557.69;;;6.57;100.00
35989;BME280;22064;42.672;23.282;2022-12-07T08:47:49;94554.66;;;6.48;100.00
35989;BME280;22064;42.672;23.282;2022-12-07T08:50:16;94549.50;;;6.60;100.00
35989;BME280;22064;42.672;23.282;2022-12-07T08:52:43;94550.00;;;6.69;100.00
35989;BME280;22064;42.672;23.282;2022-12-07T08:55:11;94552.63;;;6.81;100.00
35989;BME280;22064;42.672;23.282;2022-12-07T08:57:38;94549.16;;;6.87;100.00
35989;BME280;22064;42.672;23.282;2022-12-07T09:00:05;94555.16;;;6.99;100.00
35989;BME280;22064;42.672;23.282;2022-12-07T09:02:31;94542.81;;;7.13;100.00
35989;BME280;22064;42.672;23.282;2022-12-07T09:04:57;94540.69;;;7.22;100.00
35989;BME280;22064;42.672;23.282;2022-12-07T09:07:23;94537.88;;;7.35;100.00
35989;BME280;22064;42.672;23.282;2022-12-07T09:09:49;94536.09;;;7.47;100.00
35989;BME280;22064;42.672;23.282;2022-12-07T09:12:14;94537.69;;;7.60;100.00
35989;BME280;22064;42.672;23.282;2022-12-07T09:14:40;94529.81;;;7.67;100.00
35989;BME280;22064;42.672;23.282;2022-12-07T09:17:10;94535.00;;;7.55;100.00
35989;BME280;22064;42.672;23.282;2022-12-07T09:19:36;94541.94;;;7.31;100.00
35989;BME280;22064;42.672;23.282;2022-12-07T09:22:03;94534.63;;;7.28;100.00
35989;BME280;22064;42.672;23.282;2022-12-07T09:24:30;94539.31;;;7.19;100.00
35989;BME280;22064;42.672;23.282;2022-12-07T09:26:57;94525.63;;;7.30;100.00
35989;BME280;22064;42.672;23.282;2022-12-07T09:29:22;94528.88;;;7.26;100.00
35989;BME280;22064;42.672;23.282;2022-12-07T09:31:48;94512.66;;;7.30;100.00
35989;BME280;22064;42.672;23.282;2022-12-07T09:34:14;94512.22;;;7.45;100.00
35989;BME280;22064;42.672;23.282;2022-12-07T09:36:39;94507.94;;;7.62;100.00
35989;BME280;22064;42.672;23.282;2022-12-07T09:39:05;94513.56;;;7.71;100.00
35989;BME280;22064;42.672;23.282;2022-12-07T09:41:31;94498.34;;;7.75;100.00
35989;BME280;22064;42.672;23.282;2022-12-07T09:44:06;94503.44;;;7.70;100.00
35989;BME280;22064;42.672;23.282;2022-12-07T09:46:38;94505.13;;;7.76;100.00
35989;BME280;22064;42.672;23.282;2022-12-07T09:49:04;94501.50;;;7.89;100.00
35989;BME280;22064;42.672;23.282;2022-12-07T09:51:31;94504.88;;;8.01;100.00
35989;BME280;22064;42.672;23.282;2022-12-07T09:53:58;94499.56;;;8.07;100.00
35989;BME280;22064;42.672;23.282;2022-12-07T09:56:24;94499.63;;;8.24;100.00
35989;BME280;22064;42.672;23.282;2022-12-07T09:58:58;94495.38;;;8.47;100.00
35989;BME280;22064;42.672;23.282;2022-12-07T10:01:29;94497.13;;;8.70;100.00
35989;BME280;22064;42.672;23.282;2022-12-07T10:04:16;94502.31;;;8.87;100.00
35989;BME280;22064;42.672;23.282;2022-12-07T10:06:44;94491.94;;;8.87;100.00
35989;BME280;22064;42.672;23.282;2022-12-07T10:09:21;94489.13;;;9.22;100.00
35989;BME280;22064;42.672;23.282;2022-12-07T10:14:32;94491.66;;;9.51;100.00
35989;BME280;22064;42.672;23.282;2022-12-07T10:16:59;94481.78;;;9.69;100.00
35989;BME280;22064;42.672;23.282;2022-12-07T10:19:34;94474.81;;;9.75;100.00
35989;BME280;22064;42.672;23.282;2022-12-07T10:22:10;94474.22;;;9.90;100.00
35989;BME280;22064;42.672;23.282;2022-12-07T10:24:37;94460.63;;;10.05;100.00
35989;BME280;22064;42.672;23.282;2022-12-07T10:27:20;94459.09;;;10.09;100.00
35989;BME280;22064;42.672;23.282;2022-12-07T10:29:49;94460.13;;;9.86;100.00
35989;BME280;22064;42.672;23.282;2022-12-07T10:34:41;94445.00;;;9.61;100.00
35989;BME280;22064;42.672;23.282;2022-12-07T10:37:20;94445.19;;;9.76;100.00
35989;BME280;22064;42.672;23.282;2022-12-07T10:39:55;94436.44;;;9.82;100.00
35989;BME280;22064;42.672;23.282;2022-12-07T10:42:27;94433.28;;;10.02;100.00
35989;BME280;22064;42.672;23.282;2022-12-07T10:45:17;94440.94;;;10.14;100.00
35989;BME280;22064;42.672;23.282;2022-12-07T10:55:56;94421.41;;;9.89;100.00
35989;BME280;22064;42.672;23.282;2022-12-07T11:04:24;94406.78;;;9.83;100.00
35989;BME280;22064;42.672;23.282;2022-12-07T11:07:05;94404.78;;;9.68;100.00
35989;BME280;22064;42.672;23.282;2022-12-07T11:34:46;94367.00;;;9.61;100.00
35989;BME280;22064;42.672;23.282;2022-12-07T11:37:20;94359.94;;;9.78;100.00
35989;BME280;22064;42.672;23.282;2022-12-07T11:40:02;94359.88;;;9.73;100.00
35989;BME280;22064;42.672;23.282;2022-12-07T11:42:46;94365.13;;;9.78;100.00
35989;BME280;22064;42.672;23.282;2022-12-07T11:45:44;94364.94;;;9.85;100.00
35989;BME280;22064;42.672;23.282;2022-12-07T11:48:17;94376.06;;;9.80;100.00
35989;BME280;22064;42.672;23.282;2022-12-07T11:50:54;94369.31;;;9.79;100.00
35989;BME280;22064;42.672;23.282;2022-12-07T11:53:46;94360.63;;;9.95;100.00
35989;BME280;22064;42.672;23.282;2022-12-07T11:56:19;94352.69;;;10.07;100.00
35989;BME280;22064;42.672;23.282;2022-12-07T12:03:45;94348.66;;;10.49;100.00
35989;BME280;22064;42.672;23.282;2022-12-07T12:06:12;94349.13;;;10.73;100.00
35989;BME280;22064;42.672;23.282;2022-12-07T12:08:43;94338.28;;;10.86;100.00
35989;BME280;22064;42.672;23.282;2022-12-07T12:19:58;94332.13;;;10.60;100.00
35989;BME280;22064;42.672;23.282;2022-12-07T12:22:39;94328.91;;;10.53;100.00
35989;BME280;22064;42.672;23.282;2022-12-07T12:25:19;94327.91;;;10.59;100.00
35989;BME280;22064;42.672;23.282;2022-12-07T12:27:46;94322.34;;;10.18;100.00
35989;BME280;22064;42.672;23.282;2022-12-07T12:33:03;94319.06;;;10.28;100.00
35989;BME280;22064;42.672;23.282;2022-12-07T12:35:31;94305.47;;;10.21;100.00
35989;BME280;22064;42.672;23.282;2022-12-07T12:40:50;94292.91;;;10.39;100.00
35989;BME280;22064;42.672;23.282;2022-12-07T12:43:48;94298.50;;;10.58;100.00
35989;BME280;22064;42.672;23.282;2022-12-07T12:51:46;94296.94;;;10.95;100.00
35989;BME280;22064;42.672;23.282;2022-12-07T13:01:46;94296.66;;;11.44;100.00
35989;BME280;22064;42.672;23.282;2022-12-07T13:06:47;94311.28;;;11.55;100.00
35989;BME280;22064;42.672;23.282;2022-12-07T13:09:42;94309.63;;;11.33;100.00
35989;BME280;22064;42.672;23.282;2022-12-07T13:12:14;94306.72;;;11.25;100.00
35989;BME280;22064;42.672;23.282;2022-12-07T13:14:58;94308.97;;;11.06;100.00
35989;BME280;22064;42.672;23.282;2022-12-07T13:20:03;94306.47;;;10.79;100.00
35989;BME280;22064;42.672;23.282;2022-12-07T13:25:18;94292.63;;;11.16;100.00
35989;BME280;22064;42.672;23.282;2022-12-07T13:27:52;94298.06;;;11.09;100.00
35989;BME280;22064;42.672;23.282;2022-12-07T13:30:21;94293.41;;;11.21;100.00
35989;BME280;22064;42.672;23.282;2022-12-07T13:32:55;94295.00;;;11.22;100.00
35989;BME280;22064;42.672;23.282;2022-12-07T13:35:35;94299.16;;;11.23;100.00
35989;BME280;22064;42.672;23.282;2022-12-07T13:38:22;94290.47;;;11.07;100.00
35989;BME280;22064;42.672;23.282;2022-12-07T13:41:17;94293.56;;;10.99;100.00
35989;BME280;22064;42.672;23.282;2022-12-07T13:44:07;94289.16;;;11.00;100.00
35989;BME280;22064;42.672;23.282;2022-12-07T13:49:25;94276.53;;;10.81;100.00
35989;BME280;22064;42.672;23.282;2022-12-07T13:51:52;94279.88;;;10.72;100.00
35989;BME280;22064;42.672;23.282;2022-12-07T13:54:19;94280.66;;;10.77;100.00
35989;BME280;22064;42.672;23.282;2022-12-07T13:56:49;94274.66;;;10.72;100.00
35989;BME280;22064;42.672;23.282;2022-12-07T13:59:22;94287.25;;;10.90;100.00
35989;BME280;22064;42.672;23.282;2022-12-07T14:01:50;94284.41;;;10.92;100.00
35989;BME280;22064;42.672;23.282;2022-12-07T14:04:36;94287.00;;;10.92;100.00
35989;BME280;22064;42.672;23.282;2022-12-07T14:07:25;94286.50;;;10.95;100.00
35989;BME280;22064;42.672;23.282;2022-12-07T14:09:59;94280.00;;;10.97;100.00
35989;BME280;22064;42.672;23.282;2022-12-07T14:12:26;94272.94;;;10.93;100.00
35989;BME280;22064;42.672;23.282;2022-12-07T14:14:52;94283.66;;;11.01;100.00
35989;BME280;22064;42.672;23.282;2022-12-07T14:17:24;94289.38;;;10.98;100.00
35989;BME280;22064;42.672;23.282;2022-12-07T14:19:57;94293.78;;;10.93;100.00
35989;BME280;22064;42.672;23.282;2022-12-07T14:22:36;94299.44;;;10.79;100.00
35989;BME280;22064;42.672;23.282;2022-12-07T14:27:33;94293.63;;;10.67;100.00
35989;BME280;22064;42.672;23.282;2022-12-07T14:30:03;94294.63;;;10.61;100.00
35989;BME280;22064;42.672;23.282;2022-12-07T14:32:30;94301.00;;;10.43;100.00
35989;BME280;22064;42.672;23.282;2022-12-07T14:35:12;94294.97;;;10.37;100.00
35989;BME280;22064;42.672;23.282;2022-12-07T14:37:40;94301.78;;;10.44;100.00
35989;BME280;22064;42.672;23.282;2022-12-07T14:40:06;94302.81;;;10.43;100.00
35989;BME280;22064;42.672;23.282;2022-12-07T14:42:33;94298.88;;;10.40;100.00
35989;BME280;22064;42.672;23.282;2022-12-07T14:44:59;94303.34;;;10.17;100.00
35989;BME280;22064;42.672;23.282;2022-12-07T14:47:26;94299.25;;;9.94;100.00
35989;BME280;22064;42.672;23.282;2022-12-07T14:49:52;94294.69;;;9.80;100.00
35989;BME280;22064;42.672;23.282;2022-12-07T14:52:23;94294.41;;;9.54;100.00
35989;BME280;22064;42.672;23.282;2022-12-07T14:54:50;94294.13;;;9.29;100.00
35989;BME280;22064;42.672;23.282;2022-12-07T14:57:15;94297.13;;;9.42;100.00
35989;BME280;22064;42.672;23.282;2022-12-07T14:59:41;94293.19;;;9.18;100.00
35989;BME280;22064;42.672;23.282;2022-12-07T15:02:10;94299.25;;;9.23;100.00
35989;BME280;22064;42.672;23.282;2022-12-07T15:04:36;94306.63;;;9.32;100.00
35989;BME280;22064;42.672;23.282;2022-12-07T15:07:04;94304.03;;;9.10;100.00
35989;BME280;22064;42.672;23.282;2022-12-07T15:09:31;94309.03;;;9.16;100.00
35989;BME280;22064;42.672;23.282;2022-12-07T15:11:56;94309.25;;;8.93;100.00